createdAt,value
2018-08-17T00:02:02.099Z,96154.48
2018-08-17T00:04:30.510Z,96151.08
2018-08-17T00:06:58.927Z,96154.88
2018-08-17T00:09:27.367Z,96149.77
2018-08-17T00:11:55.771Z,96153.95
2018-08-17T00:14:24.327Z,96150.46
2018-08-17T00:16:52.677Z,96157.55
2018-08-17T00:19:21.089Z,96161.04
2018-08-17T00:21:49.560Z,96159.22
2018-08-17T00:24:17.948Z,96156.41
2018-08-17T00:26:46.354Z,96159.44
2018-08-17T00:29:15.116Z,96156.17
2018-08-17T00:31:43.496Z,96155.67
2018-08-17T00:34:11.888Z,96158.87
2018-08-17T00:36:40.440Z,96157.92
2018-08-17T00:39:10.128Z,96154.56
2018-08-17T00:41:38.712Z,96156.66
2018-08-17T00:44:07.320Z,96150.40
2018-08-17T00:46:35.632Z,96149.42
2018-08-17T00:49:04.156Z,96149.19
2018-08-17T00:51:32.668Z,96149.28
2018-08-17T00:54:01.220Z,96150.18
2018-08-17T00:56:30.567Z,96147.84
2018-08-17T00:58:58.948Z,96151.96
2018-08-17T01:01:27.628Z,96157.59
2018-08-17T01:03:55.956Z,96154.45
2018-08-17T01:06:24.464Z,96150.17
2018-08-17T01:08:52.904Z,96146.15
2018-08-17T01:11:21.386Z,96148.06
2018-08-17T01:13:49.917Z,96150.80
2018-08-17T01:16:18.238Z,96147.75
2018-08-17T01:18:46.559Z,96144.31
2018-08-17T01:21:14.931Z,96143.86
2018-08-17T01:23:43.328Z,96145.98
2018-08-17T01:26:11.659Z,96152.45
2018-08-17T01:28:40.031Z,96146.94
2018-08-17T01:31:08.370Z,96145.05
2018-08-17T01:33:36.751Z,96143.81
2018-08-17T01:36:05.098Z,96143.63
2018-08-17T01:38:33.404Z,96145.44
2018-08-17T01:41:01.772Z,96140.88
2018-08-17T01:43:30.359Z,96149.36
2018-08-17T01:45:58.731Z,96147.67
2018-08-17T01:48:27.100Z,96145.16
2018-08-17T01:50:55.609Z,96135.76
2018-08-17T01:53:23.933Z,96137.37
2018-08-17T01:55:52.345Z,96135.00
2018-08-17T01:58:20.702Z,96139.60
2018-08-17T02:00:49.171Z,96144.06
2018-08-17T02:03:17.740Z,96142.81
2018-08-17T02:05:46.367Z,96144.45
2018-08-17T02:08:14.719Z,96137.63
2018-08-17T02:10:43.132Z,96144.39
2018-08-17T02:13:11.651Z,96137.30
2018-08-17T02:15:39.985Z,96135.65
2018-08-17T02:18:08.523Z,96135.38
2018-08-17T02:20:37.133Z,96135.91
2018-08-17T02:23:05.459Z,96141.70
2018-08-17T02:25:33.810Z,96144.13
2018-08-17T02:28:02.391Z,96144.37
2018-08-17T02:30:30.784Z,96142.23
2018-08-17T02:32:59.164Z,96135.91
2018-08-17T02:35:27.626Z,96141.80
2018-08-17T02:37:56.003Z,96140.60
2018-08-17T02:40:24.371Z,96128.60
2018-08-17T02:42:52.954Z,96132.41
2018-08-17T02:45:21.286Z,96135.14
2018-08-17T02:47:49.749Z,96144.09
2018-08-17T02:50:18.211Z,96138.44
2018-08-17T02:52:46.611Z,96136.41
2018-08-17T02:55:14.958Z,96139.41
2018-08-17T02:57:43.541Z,96130.24
2018-08-17T03:00:11.963Z,96137.78
2018-08-17T03:02:40.321Z,96139.50
2018-08-17T03:05:09.373Z,96138.06
2018-08-17T03:07:37.735Z,96133.44
2018-08-17T03:10:06.103Z,96128.48
2018-08-17T03:12:34.455Z,96127.81
2018-08-17T03:15:02.807Z,96129.96
2018-08-17T03:17:31.206Z,96129.65
2018-08-17T03:19:59.672Z,96133.54
2018-08-17T03:22:28.000Z,96131.45
2018-08-17T03:24:56.433Z,96130.40
2018-08-17T03:27:25.003Z,96132.45
2018-08-17T03:29:53.321Z,96139.05
2018-08-17T03:32:21.667Z,96134.61
2018-08-17T03:34:50.161Z,96139.36
2018-08-17T03:37:18.600Z,96139.28
2018-08-17T03:39:46.919Z,96141.75
2018-08-17T03:42:15.375Z,96141.25
2018-08-17T03:44:43.761Z,96141.84
2018-08-17T03:47:12.088Z,96142.95
2018-08-17T03:49:40.478Z,96147.67
2018-08-17T03:52:08.900Z,96146.48
2018-08-17T03:54:37.237Z,96143.39
2018-08-17T03:57:05.896Z,96146.63
2018-08-17T03:59:34.207Z,96148.39
2018-08-17T04:02:02.539Z,96150.78
2018-08-17T04:04:30.939Z,96149.62
2018-08-17T04:06:59.327Z,96149.09
2018-08-17T04:09:27.685Z,96150.33
2018-08-17T04:11:56.239Z,96147.83
2018-08-17T04:14:24.549Z,96147.83
2018-08-17T04:16:52.967Z,96151.41
2018-08-17T04:19:21.575Z,96157.75
2018-08-17T04:21:49.891Z,96162.13
2018-08-17T04:24:18.239Z,96155.86
2018-08-17T04:26:46.707Z,96161.88
2018-08-17T04:29:15.085Z,96167.36
2018-08-17T04:31:43.443Z,96154.80
2018-08-17T04:34:11.934Z,96156.73
2018-08-17T04:36:40.287Z,96158.98
2018-08-17T04:39:08.731Z,96160.00
2018-08-17T04:41:37.183Z,96164.58
2018-08-17T04:44:05.564Z,96173.28
2018-08-17T04:46:33.929Z,96172.22
2018-08-17T04:49:02.420Z,96174.09
2018-08-17T04:51:30.762Z,96178.88
2018-08-17T04:53:59.084Z,96179.92
2018-08-17T04:56:27.551Z,96182.31
2018-08-17T04:58:55.915Z,96179.30
2018-08-17T05:01:24.332Z,96183.91
2018-08-17T05:03:52.976Z,96179.02
2018-08-17T05:06:21.319Z,96182.26
2018-08-17T05:08:49.746Z,96183.10
2018-08-17T05:11:18.239Z,96181.91
2018-08-17T05:13:46.559Z,96185.70
2018-08-17T05:16:14.911Z,96184.02
2018-08-17T05:18:43.567Z,96185.28
2018-08-17T05:21:11.962Z,96189.61
2018-08-17T05:23:40.320Z,96186.47
2018-08-17T05:26:08.764Z,96190.61
2018-08-17T05:28:37.099Z,96193.08
2018-08-17T05:31:05.731Z,96192.17
2018-08-17T05:33:34.259Z,96196.27
2018-08-17T05:36:02.650Z,96194.88
2018-08-17T05:38:31.027Z,96191.20
2018-08-17T05:40:59.687Z,96195.84
2018-08-17T05:43:28.004Z,96199.20
2018-08-17T05:45:56.505Z,96195.62
2018-08-17T05:48:24.867Z,96198.36
2018-08-17T05:50:53.228Z,96201.41
2018-08-17T05:53:21.699Z,96206.29
2018-08-17T05:55:50.188Z,96203.98
2018-08-17T05:58:18.555Z,96205.91
2018-08-17T06:00:46.976Z,96209.61
2018-08-17T06:03:15.512Z,96205.58
2018-08-17T06:05:43.890Z,96209.38
2018-08-17T06:08:12.268Z,96215.34
2018-08-17T06:10:40.855Z,96213.77
2018-08-17T06:13:09.219Z,96218.83
2018-08-17T06:15:37.573Z,96218.02
2018-08-17T06:18:06.140Z,96224.95
2018-08-17T06:20:34.579Z,96229.13
2018-08-17T06:23:02.956Z,96231.64
2018-08-17T06:25:31.538Z,96235.55
2018-08-17T06:27:59.926Z,96235.87
2018-08-17T06:30:28.291Z,96235.92
2018-08-17T06:32:56.772Z,96234.67
2018-08-17T06:35:25.171Z,96229.00
2018-08-17T06:37:53.596Z,96226.78
2018-08-17T06:40:22.200Z,96230.84
2018-08-17T06:42:50.605Z,96232.48
2018-08-17T06:45:19.114Z,96233.66
2018-08-17T06:47:47.643Z,96237.29
2018-08-17T06:50:15.999Z,96234.39
2018-08-17T06:52:44.351Z,96226.33
2018-08-17T06:55:13.099Z,96230.81
2018-08-17T06:57:41.645Z,96233.17
2018-08-17T07:00:14.369Z,96233.05
2018-08-17T07:02:43.741Z,96228.17
2018-08-17T07:05:12.274Z,96232.07
2018-08-17T07:07:41.133Z,96231.70
2018-08-17T07:10:11.676Z,96238.59
2018-08-17T07:12:40.627Z,96235.30
2018-08-17T07:15:09.338Z,96235.23
2018-08-17T07:17:37.949Z,96231.39
2018-08-17T07:20:07.865Z,96240.95
2018-08-17T07:22:36.524Z,96238.19
2018-08-17T07:25:05.563Z,96238.10
2018-08-17T07:27:34.034Z,96237.70
2018-08-17T07:30:02.566Z,96243.16
2018-08-17T07:32:31.325Z,96238.19
2018-08-17T07:34:59.926Z,96237.25
2018-08-17T07:37:28.606Z,96237.39
2018-08-17T07:39:57.007Z,96239.48
2018-08-17T07:42:25.526Z,96237.19
2018-08-17T07:44:54.107Z,96233.18
2018-08-17T07:47:22.507Z,96240.58
2018-08-17T07:49:50.941Z,96239.42
2018-08-17T07:52:19.423Z,96243.38
2018-08-17T07:54:47.856Z,96243.50
2018-08-17T07:57:16.184Z,96249.59
2018-08-17T07:59:44.984Z,96251.86
2018-08-17T08:02:13.334Z,96251.41
2018-08-17T08:04:41.685Z,96254.42
2018-08-17T08:07:10.172Z,96249.03
2018-08-17T08:09:38.645Z,96253.43
2018-08-17T08:12:07.292Z,96253.33
2018-08-17T08:14:35.853Z,96255.97
2018-08-17T08:17:04.340Z,96261.28
2018-08-17T08:19:32.812Z,96258.14
2018-08-17T08:22:01.372Z,96260.94
2018-08-17T08:24:30.548Z,96258.58
2018-08-17T08:26:58.897Z,96254.62
2018-08-17T08:29:27.453Z,96260.97
2018-08-17T08:31:55.832Z,96253.22
2018-08-17T08:34:24.228Z,96260.61
2018-08-17T08:36:52.624Z,96257.17
2018-08-17T08:39:21.030Z,96262.16
2018-08-17T08:41:49.400Z,96262.48
2018-08-17T08:44:18.056Z,96266.05
2018-08-17T08:46:46.409Z,96262.62
2018-08-17T08:49:14.894Z,96261.57
2018-08-17T08:51:43.292Z,96261.88
2018-08-17T08:54:11.652Z,96263.31
2018-08-17T08:56:39.996Z,96265.84
2018-08-17T08:59:08.620Z,96269.17
2018-08-17T09:01:37.009Z,96270.08
2018-08-17T09:04:05.348Z,96266.37
2018-08-17T09:06:33.847Z,96261.05
2018-08-17T09:09:03.041Z,96268.67
2018-08-17T09:11:31.521Z,96266.57
2018-08-17T09:14:00.072Z,96267.42
2018-08-17T09:16:28.613Z,96264.78
2018-08-17T09:18:56.991Z,96264.56
2018-08-17T09:21:25.479Z,96263.28
2018-08-17T09:23:54.200Z,96258.41
2018-08-17T09:26:22.782Z,96259.28
2018-08-17T09:28:51.156Z,96260.40
2018-08-17T09:31:19.486Z,96257.72
2018-08-17T09:33:47.832Z,96261.53
2018-08-17T09:36:16.328Z,96256.45
2018-08-17T09:38:44.668Z,96258.10
2018-08-17T09:41:13.020Z,96255.67
2018-08-17T09:43:41.504Z,96255.39
2018-08-17T09:46:09.868Z,96253.75
2018-08-17T09:48:38.209Z,96258.08
2018-08-17T09:51:06.612Z,96252.40
2018-08-17T09:53:35.046Z,96249.69
2018-08-17T09:56:03.431Z,96255.62
2018-08-17T09:58:31.838Z,96251.30
2018-08-17T10:01:05.536Z,96242.89
2018-08-17T10:03:39.088Z,96251.55
2018-08-17T10:06:12.671Z,96248.55
2018-08-17T10:08:46.233Z,96244.19
2018-08-17T10:11:14.599Z,96240.61
2018-08-17T10:13:43.020Z,96240.59
2018-08-17T10:16:11.445Z,96244.59
2018-08-17T10:18:44.336Z,96240.38
2018-08-17T10:21:14.027Z,96235.96
2018-08-17T10:23:42.112Z,96241.05
2018-08-17T10:26:10.476Z,96238.22
2018-08-17T10:28:38.883Z,96240.05
2018-08-17T10:31:07.260Z,96241.10
2018-08-17T10:33:35.624Z,96242.41
2018-08-17T10:36:08.610Z,96228.48
2018-08-17T10:38:37.096Z,96234.66
2018-08-17T10:41:05.493Z,96235.11
2018-08-17T10:43:33.876Z,96233.61
2018-08-17T10:46:02.203Z,96231.00
2018-08-17T10:48:30.577Z,96231.91
2018-08-17T10:50:58.964Z,96233.93
2018-08-17T10:53:36.423Z,96227.02
2018-08-17T10:56:05.089Z,96226.16
2018-08-17T10:58:34.373Z,96227.63
2018-08-17T11:01:02.728Z,96230.59
2018-08-17T11:03:31.217Z,96227.02
2018-08-17T11:05:59.550Z,96225.98
2018-08-17T11:08:27.898Z,96222.20
2018-08-17T11:10:56.288Z,96225.08
2018-08-17T11:13:24.816Z,96227.19
2018-08-17T11:15:53.157Z,96231.50
2018-08-17T11:18:21.533Z,96229.28
2018-08-17T11:20:49.945Z,96230.02
2018-08-17T11:23:18.284Z,96230.08
2018-08-17T11:25:46.660Z,96235.59
2018-08-17T11:28:15.064Z,96235.30
2018-08-17T11:30:43.400Z,96231.47
2018-08-17T11:33:11.853Z,96230.56
2018-08-17T11:35:40.175Z,96225.87
2018-08-17T11:38:08.603Z,96225.47
2018-08-17T11:40:37.004Z,96231.63
2018-08-17T11:43:05.353Z,96227.19
2018-08-17T11:45:34.922Z,96229.30
2018-08-17T11:48:03.459Z,96223.76
2018-08-17T11:50:32.761Z,96225.79
2018-08-17T11:53:01.115Z,96223.22
2018-08-17T11:55:31.954Z,96222.14
2018-08-17T11:58:01.228Z,96223.33
2018-08-17T12:00:34.704Z,96218.59
2018-08-17T12:03:03.150Z,96222.63
2018-08-17T12:05:31.530Z,96223.37
2018-08-17T12:07:59.920Z,96217.58
2018-08-17T12:10:28.274Z,96218.83
2018-08-17T12:13:03.284Z,96228.93
2018-08-17T12:15:32.981Z,96218.56
2018-08-17T12:18:01.349Z,96218.31
2018-08-17T12:20:30.424Z,96214.64
2018-08-17T12:22:58.900Z,96210.17
2018-08-17T12:25:27.298Z,96203.93
2018-08-17T12:28:01.858Z,96209.74
2018-08-17T12:30:30.299Z,96214.91
2018-08-17T12:32:58.727Z,96215.19
2018-08-17T12:35:27.137Z,96221.05
2018-08-17T12:38:00.784Z,96211.00
2018-08-17T12:40:36.098Z,96217.25
2018-08-17T12:43:04.469Z,96212.91
2018-08-17T12:45:32.804Z,96211.70
2018-08-17T12:48:01.207Z,96211.17
2018-08-17T12:50:29.578Z,96211.91
2018-08-17T12:52:57.919Z,96208.31
2018-08-17T12:55:26.401Z,96206.98
2018-08-17T12:57:54.798Z,96200.64
2018-08-17T13:00:23.216Z,96193.52
2018-08-17T13:02:51.688Z,96200.58
2018-08-17T13:05:20.583Z,96192.45
2018-08-17T13:07:48.987Z,96196.55
2018-08-17T13:10:17.463Z,96186.41
2018-08-17T13:12:53.486Z,96187.55
2018-08-17T13:15:21.951Z,96188.08
2018-08-17T13:17:50.432Z,96186.30
2018-08-17T13:20:19.534Z,96196.37
2018-08-17T13:22:48.103Z,96185.80
2018-08-17T13:25:16.472Z,96184.08
2018-08-17T13:27:44.858Z,96179.65
2018-08-17T13:30:14.727Z,96179.48
2018-08-17T13:32:43.782Z,96172.99
2018-08-17T13:35:12.964Z,96173.35
2018-08-17T13:37:41.794Z,96169.50
2018-08-17T13:40:11.079Z,96171.16
2018-08-17T13:42:39.520Z,96174.25
2018-08-17T13:45:09.571Z,96167.73
2018-08-17T13:47:37.939Z,96180.81
2018-08-17T13:50:06.874Z,96168.09
2018-08-17T13:52:35.499Z,96166.72
2018-08-17T13:55:03.920Z,96166.31
2018-08-17T13:57:32.276Z,96159.64
2018-08-17T14:00:00.762Z,96163.17
2018-08-17T14:02:29.145Z,96155.75
2018-08-17T14:04:57.525Z,96155.62
2018-08-17T14:07:25.981Z,96151.23
2018-08-17T14:09:54.311Z,96154.28
2018-08-17T14:12:22.700Z,96149.17
2018-08-17T14:14:51.076Z,96146.25
2018-08-17T14:17:19.576Z,96143.86
2018-08-17T14:19:48.030Z,96140.68
2018-08-17T14:22:16.473Z,96145.77
2018-08-17T14:24:44.836Z,96144.17
2018-08-17T14:27:13.189Z,96148.28
2018-08-17T14:29:41.647Z,96149.96
2018-08-17T14:32:10.645Z,96144.34
2018-08-17T14:34:39.344Z,96147.38
2018-08-17T14:37:07.900Z,96141.33
2018-08-17T14:39:36.304Z,96140.53
2018-08-17T14:42:04.775Z,96137.66
2018-08-17T14:44:33.153Z,96138.24
2018-08-17T14:47:01.521Z,96134.62
2018-08-17T14:49:29.906Z,96132.72
2018-08-17T14:51:58.548Z,96136.92
2018-08-17T14:54:26.826Z,96138.98
2018-08-17T14:56:55.256Z,96139.27
2018-08-17T14:59:23.832Z,96137.32
2018-08-17T15:01:52.184Z,96138.20
2018-08-17T15:04:20.544Z,96136.83
2018-08-17T15:06:49.112Z,96133.42
2018-08-17T15:09:17.548Z,96132.67
2018-08-17T15:11:46.115Z,96133.48
2018-08-17T15:14:15.215Z,96126.27
2018-08-17T15:16:43.940Z,96130.95
2018-08-17T15:19:12.468Z,96128.30
2018-08-17T15:21:41.467Z,96128.30
2018-08-17T15:24:10.418Z,96123.39
2018-08-17T15:26:38.899Z,96127.50
2018-08-17T15:29:07.448Z,96126.04
2018-08-17T15:31:35.931Z,96124.77
2018-08-17T15:34:04.421Z,96125.65
2018-08-17T15:36:32.808Z,96129.37
2018-08-17T15:39:01.153Z,96126.58
2018-08-17T15:41:29.617Z,96125.20
2018-08-17T15:43:58.178Z,96126.00
2018-08-17T15:46:26.741Z,96123.83
2018-08-17T15:48:56.565Z,96125.02
2018-08-17T15:51:24.956Z,96123.73
2018-08-17T15:53:54.614Z,96130.16
2018-08-17T15:56:23.758Z,96126.84
2018-08-17T15:58:52.248Z,96126.36
2018-08-17T16:01:20.701Z,96132.23
2018-08-17T16:03:48.999Z,96122.80
2018-08-17T16:06:17.692Z,96123.91
2018-08-17T16:08:46.168Z,96119.58
2018-08-17T16:11:14.592Z,96121.97
2018-08-17T16:13:42.987Z,96121.44
2018-08-17T16:16:11.533Z,96118.44
2018-08-17T16:18:39.882Z,96124.56
2018-08-17T16:21:08.320Z,96123.24
2018-08-17T16:23:36.688Z,96123.41
2018-08-17T16:26:05.185Z,96120.72
2018-08-17T16:28:33.611Z,96118.59
2018-08-17T16:31:01.979Z,96119.30
2018-08-17T16:33:30.364Z,96118.44
2018-08-17T16:35:59.075Z,96121.64
2018-08-17T16:38:27.513Z,96120.39
2018-08-17T16:40:55.928Z,96126.94
2018-08-17T16:43:35.788Z,96115.49
2018-08-17T16:46:04.168Z,96118.84
2018-08-17T16:48:32.548Z,96116.00
2018-08-17T16:51:01.024Z,96120.11
2018-08-17T16:53:29.514Z,96121.22
2018-08-17T16:55:57.876Z,96123.27
2018-08-17T16:58:26.384Z,96125.02
2018-08-17T17:00:54.931Z,96128.47
2018-08-17T17:03:24.293Z,96130.36
2018-08-17T17:05:57.800Z,96131.08
2018-08-17T17:08:27.090Z,96137.25
2018-08-17T17:10:55.484Z,96134.05
2018-08-17T17:13:24.308Z,96139.06
2018-08-17T17:15:52.716Z,96139.92
2018-08-17T17:18:21.141Z,96141.90
2018-08-17T17:20:49.684Z,96145.66
2018-08-17T17:23:18.299Z,96143.77
2018-08-17T17:25:46.778Z,96148.88
2018-08-17T17:28:15.509Z,96148.48
2018-08-17T17:30:53.797Z,96159.03
2018-08-17T17:33:22.657Z,96164.05
2018-08-17T17:35:51.109Z,96159.09
2018-08-17T17:38:19.521Z,96160.45
2018-08-17T17:40:48.244Z,96166.11
2018-08-17T17:43:16.694Z,96171.73
2018-08-17T17:45:45.138Z,96171.03
2018-08-17T17:48:13.787Z,96169.85
2018-08-17T17:50:42.148Z,96170.84
2018-08-17T17:53:10.544Z,96177.78
2018-08-17T17:55:44.460Z,96178.20
2018-08-17T17:58:13.585Z,96179.97
2018-08-17T18:00:46.173Z,96174.11
2018-08-17T18:03:14.612Z,96179.09
2018-08-17T18:05:43.218Z,96185.22
2018-08-17T18:08:20.181Z,96187.63
2018-08-17T18:10:49.061Z,96195.33
2018-08-17T18:13:17.444Z,96192.44
2018-08-17T18:15:46.011Z,96200.00
2018-08-17T18:18:14.428Z,96202.28
2018-08-17T18:20:42.934Z,96196.00
2018-08-17T18:23:11.379Z,96213.80
2018-08-17T18:25:39.872Z,96214.73
2018-08-17T18:28:08.315Z,96224.35
2018-08-17T18:30:36.773Z,96222.27
2018-08-17T18:33:05.189Z,96235.34
2018-08-17T18:35:33.550Z,96231.56
2018-08-17T18:38:02.019Z,96230.25
2018-08-17T18:40:30.638Z,96232.74
2018-08-17T18:42:59.010Z,96234.09
2018-08-17T18:45:27.571Z,96242.53
2018-08-17T18:47:55.929Z,96235.49
2018-08-17T18:50:24.295Z,96238.19
2018-08-17T18:52:52.996Z,96245.27
2018-08-17T18:55:21.337Z,96242.05
2018-08-17T18:57:49.695Z,96243.71
2018-08-17T19:00:18.293Z,96246.44
2018-08-17T19:02:46.711Z,96254.03
2018-08-17T19:05:15.132Z,96251.05
2018-08-17T19:07:43.651Z,96254.84
2018-08-17T19:10:12.101Z,96253.21
2018-08-17T19:12:40.487Z,96260.83
2018-08-17T19:15:11.611Z,96260.26
2018-08-17T19:17:40.443Z,96260.53
2018-08-17T19:20:11.611Z,96262.70
2018-08-17T19:22:42.867Z,96264.89
2018-08-17T19:25:13.022Z,96269.48
2018-08-17T19:27:41.962Z,96275.99
2018-08-17T19:30:25.733Z,96275.20
2018-08-17T19:32:55.475Z,96285.76
2018-08-17T19:35:23.913Z,96280.05
2018-08-17T19:37:53.130Z,96281.14
2018-08-17T19:40:22.589Z,96281.41
2018-08-17T19:42:51.005Z,96288.67
2018-08-17T19:45:20.054Z,96285.42
2018-08-17T19:47:48.448Z,96295.69
2018-08-17T19:50:16.801Z,96292.98
2018-08-17T19:52:45.303Z,96290.77
2018-08-17T19:55:13.637Z,96291.27
2018-08-17T19:57:42.071Z,96292.33
2018-08-17T20:00:11.659Z,96298.00
2018-08-17T20:02:40.228Z,96298.81
2018-08-17T20:05:08.704Z,96295.77
2018-08-17T20:07:37.685Z,96302.39
2018-08-17T20:10:06.394Z,96295.58
2018-08-17T20:12:34.756Z,96298.75
2018-08-17T20:15:04.932Z,96301.69
2018-08-17T20:17:33.336Z,96302.13
2018-08-17T20:20:01.823Z,96298.02
2018-08-17T20:22:30.293Z,96299.08
2018-08-17T20:24:58.744Z,96300.27
2018-08-17T20:27:27.260Z,96302.83
2018-08-17T20:30:00.716Z,96309.77
2018-08-17T20:32:29.250Z,96308.94
2018-08-17T20:34:57.617Z,96312.45
2018-08-17T20:37:26.139Z,96308.38
2018-08-17T20:39:54.509Z,96317.55
2018-08-17T20:42:22.869Z,96315.66
2018-08-17T20:44:51.417Z,96318.03
2018-08-17T20:47:19.834Z,96316.10
2018-08-17T20:49:48.206Z,96313.11
2018-08-17T20:52:16.606Z,96315.30
2018-08-17T20:54:44.963Z,96313.34
2018-08-17T20:57:13.320Z,96316.90
2018-08-17T20:59:41.908Z,96321.75
2018-08-17T21:02:10.242Z,96325.00
2018-08-17T21:04:38.572Z,96323.11
2018-08-17T21:07:07.420Z,96322.30
2018-08-17T21:09:35.805Z,96323.34
2018-08-17T21:12:04.208Z,96321.67
2018-08-17T21:14:32.760Z,96326.20
2018-08-17T21:17:01.124Z,96323.38
2018-08-17T21:19:34.738Z,96325.73
2018-08-17T21:22:03.116Z,96332.39
2018-08-17T21:24:31.444Z,96329.94
2018-08-17T21:26:59.940Z,96335.64
2018-08-17T21:29:28.530Z,96332.08
2018-08-17T21:31:56.724Z,96335.54
2018-08-17T21:34:25.118Z,96335.17
2018-08-17T21:36:54.192Z,96328.54
2018-08-17T21:39:22.604Z,96337.32
2018-08-17T21:41:51.077Z,96337.97
2018-08-17T21:44:20.656Z,96337.59
2018-08-17T21:46:55.844Z,96341.28
2018-08-17T21:49:25.376Z,96337.72
2018-08-17T21:51:57.348Z,96342.67
2018-08-17T21:54:25.748Z,96342.76
2018-08-17T21:56:54.934Z,96346.77
2018-08-17T21:59:23.374Z,96356.48
2018-08-17T22:01:51.777Z,96353.88
2018-08-17T22:04:20.153Z,96367.25
2018-08-17T22:06:48.591Z,96365.39
2018-08-17T22:09:26.957Z,96372.47
2018-08-17T22:11:55.333Z,96372.58
2018-08-17T22:14:23.675Z,96373.23
2018-08-17T22:16:52.016Z,96373.17
2018-08-17T22:19:31.803Z,96385.52
2018-08-17T22:22:00.148Z,96395.09
2018-08-17T22:24:28.564Z,96417.27
2018-08-17T22:26:57.000Z,96415.44
2018-08-17T22:29:25.424Z,96418.71
2018-08-17T22:31:53.962Z,96415.38
2018-08-17T22:34:22.428Z,96419.56
2018-08-17T22:36:50.764Z,96418.14
2018-08-17T22:39:19.098Z,96416.19
2018-08-17T22:41:47.524Z,96421.77
2018-08-17T22:44:20.932Z,96417.01
2018-08-17T22:46:59.287Z,96431.01
2018-08-17T22:49:27.621Z,96443.26
2018-08-17T22:51:56.025Z,96440.87
2018-08-17T22:54:24.466Z,96448.48
2018-08-17T22:56:52.803Z,96446.63
2018-08-17T22:59:21.140Z,96453.95
2018-08-17T23:01:49.540Z,96453.67
2018-08-17T23:04:17.912Z,96453.48
2018-08-17T23:06:46.407Z,96452.66
2018-08-17T23:09:14.670Z,96449.13
2018-08-17T23:11:43.056Z,96445.08
2018-08-17T23:14:15.020Z,96447.78
2018-08-17T23:16:44.672Z,96442.79
2018-08-17T23:19:13.008Z,96447.20
2018-08-17T23:21:41.383Z,96446.22
2018-08-17T23:24:10.424Z,96445.08
2018-08-17T23:26:38.771Z,96441.59
2018-08-17T23:29:07.840Z,96450.00
2018-08-17T23:31:36.322Z,96454.20
2018-08-17T23:34:04.768Z,96455.97
2018-08-17T23:36:33.148Z,96461.02
2018-08-17T23:39:01.624Z,96463.94
2018-08-17T23:41:29.977Z,96465.44
2018-08-17T23:43:58.335Z,96471.05
2018-08-17T23:46:26.804Z,96478.14
2018-08-17T23:48:55.120Z,96488.95
2018-08-17T23:51:23.474Z,96499.62
2018-08-17T23:53:51.872Z,96493.73
2018-08-17T23:56:20.242Z,96493.27
2018-08-17T23:58:48.580Z,96491.70
